Time;durP1;ratioP1;P1;durP2;ratioP2;P2;SDS_P1;SDS_P2;PMS_P1;PMS_P2;Temp;Humidity;BMP_temperature;BMP_pressure;BME280_temperature;BME280_humidity;BME280_pressure;Samples;Min_cycle;Max_cycle;Signal;HPM_P1;HPM_P2
2023/09/16 00:00:34;;;;;;;3.65;1.88;;;;;;;9.73;100.00;101243.78;4979819;28;20042;-77
2023/09/16 00:03:01;;;;;;;5.93;1.83;;;;;;;9.73;100.00;101241.09;4995787;28;20031;-77
2023/09/16 00:05:28;;;;;;;5.47;2.08;;;;;;;9.72;100.00;101242.94;5011712;28;20088;-77
2023/09/16 00:07:54;;;;;;;5.45;2.10;;;;;;;9.74;100.00;101245.47;4995689;28;20035;-78
2023/09/16 00:10:20;;;;;;;6.00;2.60;;;;;;;9.78;100.00;101236.09;4978015;28;20111;-77
2023/09/16 00:12:45;;;;;;;4.90;2.20;;;;;;;9.79;100.00;101235.97;4963487;28;20034;-78
2023/09/16 00:15:11;;;;;;;7.07;2.28;;;;;;;9.80;100.00;101232.25;4979644;28;20045;-77
2023/09/16 00:17:37;;;;;;;4.68;2.10;;;;;;;9.82;100.00;101232.94;4996048;28;20041;-77
2023/09/16 00:20:15;;;;;;;7.03;2.65;;;;;;;9.85;100.00;101231.78;4995271;28;20438;-77
2023/09/16 00:22:44;;;;;;;5.10;1.90;;;;;;;9.82;100.00;101219.53;4979414;28;20049;-77
2023/09/16 00:25:10;;;;;;;5.15;2.08;;;;;;;9.94;100.00;101236.19;4995364;28;20030;-77
2023/09/16 00:27:39;;;;;;;6.47;3.00;;;;;;;9.95;100.00;101237.03;4979204;28;20469;-77
2023/09/16 00:30:07;;;;;;;3.40;2.60;;;;;;;9.98;100.00;101245.63;4979292;28;20370;-77
2023/09/16 00:32:34;;;;;;;5.38;2.20;;;;;;;10.00;100.00;101249.00;4978936;28;20045;-77
2023/09/16 00:34:59;;;;;;;7.85;3.25;;;;;;;10.00;100.00;101245.44;5011233;28;20037;-77
2023/09/16 00:37:25;;;;;;;4.60;1.90;;;;;;;9.98;100.00;101251.00;4995042;28;20042;-77
2023/09/16 00:39:51;;;;;;;5.95;3.03;;;;;;;9.96;100.00;101244.94;4994989;28;20026;-77
2023/09/16 00:42:16;;;;;;;3.88;2.33;;;;;;;9.94;100.00;101244.25;4979225;28;20045;-77
2023/09/16 00:44:43;;;;;;;5.68;2.97;;;;;;;9.93;100.00;101239.88;4995164;28;20034;-77
2023/09/16 00:47:18;;;;;;;6.28;2.78;;;;;;;9.90;100.00;101234.84;5009835;28;20033;-77
2023/09/16 00:49:44;;;;;;;5.57;2.78;;;;;;;9.88;100.00;101242.22;4978662;28;20371;-77
2023/09/16 00:52:10;;;;;;;9.30;3.30;;;;;;;9.85;100.00;101245.22;4994700;28;20030;-77
2023/09/16 00:54:36;;;;;;;5.05;2.63;;;;;;;9.82;100.00;101238.31;4978775;28;20503;-78
2023/09/16 00:57:02;;;;;;;4.40;2.78;;;;;;;9.82;100.00;101237.47;4995024;28;20040;-77
2023/09/16 00:59:28;;;;;;;8.98;3.78;;;;;;;9.79;100.00;101245.84;4994995;28;20069;-77
2023/09/16 01:01:54;;;;;;;9.07;3.42;;;;;;;9.78;100.00;101246.84;5010418;28;20042;-78
2023/09/16 01:04:21;;;;;;;5.65;2.97;;;;;;;9.76;100.00;101249.69;4978503;28;20066;-77
2023/09/16 01:06:51;;;;;;;4.95;2.95;;;;;;;9.77;100.00;101245.19;4978420;28;20041;-77
2023/09/16 01:09:17;;;;;;;4.88;2.50;;;;;;;9.76;100.00;101235.41;4994694;28;20477;-78
2023/09/16 01:11:46;;;;;;;4.88;2.50;;;;;;;9.74;100.00;101240.97;5010709;28;20061;-79
2023/09/16 01:14:14;;;;;;;6.10;2.72;;;;;;;9.74;100.00;101253.53;5010501;28;20057;-77
2023/09/16 01:16:48;;;;;;;6.80;2.63;;;;;;;9.75;100.00;101252.53;4978419;28;20035;-77
2023/09/16 01:19:20;;;;;;;4.82;2.65;;;;;;;9.75;100.00;101248.00;5010316;28;20030;-77
2023/09/16 01:21:48;;;;;;;3.58;1.90;;;;;;;9.74;100.00;101242.78;4977983;28;20042;-77
2023/09/16 01:24:18;;;;;;;4.13;1.95;;;;;;;9.78;100.00;101260.28;4994339;28;20050;-77
2023/09/16 01:26:48;;;;;;;3.70;2.10;;;;;;;9.75;100.00;101258.75;4977819;28;20475;-77
2023/09/16 01:29:15;;;;;;;2.83;2.10;;;;;;;9.77;100.00;101262.13;4994486;28;20491;-77
2023/09/16 01:31:41;;;;;;;3.58;1.83;;;;;;;9.77;100.00;101262.13;4977901;28;20370;-77
2023/09/16 01:34:22;;;;;;;2.20;1.50;;;;;;;9.76;100.00;101267.63;4993884;28;20046;-77
2023/09/16 01:36:53;;;;;;;3.30;1.77;;;;;;;9.74;100.00;101261.56;5010588;28;20076;-78
2023/09/16 01:39:21;;;;;;;4.95;1.92;;;;;;;9.71;100.00;101261.91;4994037;28;20030;-78
2023/09/16 01:41:48;;;;;;;3.67;1.77;;;;;;;9.67;100.00;101256.84;4993686;28;20397;-78
2023/09/16 01:44:13;;;;;;;2.72;1.67;;;;;;;9.68;100.00;101268.44;4977760;28;20030;-78
2023/09/16 01:46:42;;;;;;;6.45;2.03;;;;;;;9.65;100.00;101261.53;4977455;28;20380;-78
2023/09/16 01:49:07;;;;;;;5.45;1.60;;;;;;;9.63;100.00;101263.56;4977539;28;20030;-79
2023/09/16 01:51:33;;;;;;;4.25;1.63;;;;;;;9.61;100.00;101262.84;4977874;28;20424;-78
2023/09/16 01:53:58;;;;;;;4.10;1.52;;;;;;;9.58;100.00;101263.19;4977593;28;20465;-79
2023/09/16 01:56:25;;;;;;;3.97;1.70;;;;;;;9.54;100.00;101267.16;4993585;28;20092;-78
2023/09/16 01:58:53;;;;;;;5.13;2.05;;;;;;;9.51;100.00;101272.84;4977370;28;20485;-78
2023/09/16 02:01:19;;;;;;;2.85;1.67;;;;;;;9.48;100.00;101280.38;4977412;28;20515;-78
2023/09/16 02:03:48;;;;;;;3.50;1.90;;;;;;;9.46;100.00;101281.34;4993344;28;20038;-78
2023/09/16 02:06:13;;;;;;;3.20;1.80;;;;;;;9.49;100.00;101274.00;4977078;28;20470;-78
2023/09/16 02:08:39;;;;;;;3.10;1.80;;;;;;;9.50;100.00;101278.34;4977240;28;20121;-79
2023/09/16 02:11:05;;;;;;;8.30;1.90;;;;;;;9.51;100.00;101280.91;4993529;28;20390;-78
2023/09/16 02:13:35;;;;;;;4.85;1.95;;;;;;;9.51;100.00;101272.00;4993534;28;20389;-78
2023/09/16 02:16:01;;;;;;;5.47;2.28;;;;;;;9.51;100.00;101267.47;4993134;28;20104;-78
2023/09/16 02:18:26;;;;;;;2.38;1.70;;;;;;;9.51;100.00;101274.69;4977236;28;20521;-78
2023/09/16 02:20:52;;;;;;;4.28;2.28;;;;;;;9.49;100.00;101279.38;4977220;28;20125;-78
2023/09/16 02:23:18;;;;;;;6.90;2.97;;;;;;;9.41;100.00;101280.97;4993298;28;20429;-78
2023/09/16 02:25:44;;;;;;;5.38;2.40;;;;;;;9.37;100.00;101286.84;5009243;28;20035;-78
2023/09/16 02:28:09;;;;;;;4.55;2.22;;;;;;;9.40;100.00;101299.94;4993002;28;20030;-77
2023/09/16 02:30:35;;;;;;;6.13;2.65;;;;;;;9.44;100.00;101298.63;4961123;28;20092;-78
2023/09/16 02:33:01;;;;;;;3.60;2.35;;;;;;;9.42;100.00;101300.59;4976327;28;20034;-78
2023/09/16 02:35:26;;;;;;;6.80;3.03;;;;;;;9.39;100.00;101292.88;4977123;28;20049;-78
2023/09/16 02:37:52;;;;;;;3.83;2.40;;;;;;;9.37;100.00;101284.16;4976841;28;20027;-78
2023/09/16 02:40:17;;;;;;;6.70;2.80;;;;;;;9.42;100.00;101273.75;4977151;28;20038;-77
2023/09/16 02:42:43;;;;;;;5.30;2.60;;;;;;;9.43;100.00;101262.88;4977073;28;20038;-77
2023/09/16 02:45:12;;;;;;;3.45;2.30;;;;;;;9.45;100.00;101270.78;4977035;28;20469;-78
2023/09/16 02:47:38;;;;;;;6.40;2.88;;;;;;;9.43;100.00;101279.00;4976561;28;20452;-78
2023/09/16 02:50:04;;;;;;;4.43;2.55;;;;;;;9.44;100.00;101277.16;4976973;28;20069;-78
2023/09/16 02:52:30;;;;;;;4.82;2.33;;;;;;;9.50;100.00;101275.66;4977073;28;20516;-78
2023/09/16 02:54:55;;;;;;;5.13;2.47;;;;;;;9.52;100.00;101279.06;4976826;28;20038;-78
2023/09/16 02:57:21;;;;;;;3.35;2.13;;;;;;;9.50;100.00;101276.53;4993827;28;20037;-78
2023/09/16 02:59:46;;;;;;;6.93;2.30;;;;;;;9.53;100.00;101275.38;4993032;28;20105;-78
2023/09/16 03:02:12;;;;;;;4.93;2.10;;;;;;;9.56;100.00;101283.97;4976763;28;20042;-78
2023/09/16 03:04:38;;;;;;;3.67;2.00;;;;;;;9.58;100.00;101281.97;4992193;28;20363;-77
2023/09/16 03:07:04;;;;;;;4.78;1.95;;;;;;;9.59;100.00;101290.84;4976244;28;20097;-78
2023/09/16 03:09:29;;;;;;;2.30;1.60;;;;;;;9.60;100.00;101304.09;4976898;28;20072;-78
2023/09/16 03:11:58;;;;;;;7.93;1.95;;;;;;;9.60;100.00;101292.53;4976673;28;20027;-78
2023/09/16 03:14:25;;;;;;;7.05;2.63;;;;;;;9.58;100.00;101298.06;4992806;28;20035;-78
2023/09/16 03:16:50;;;;;;;7.22;2.10;;;;;;;9.60;100.00;101289.84;4976619;28;20130;-77
2023/09/16 03:19:21;;;;;;;3.92;1.98;;;;;;;9.56;100.00;101289.31;4976757;28;20111;-78
2023/09/16 03:21:47;;;;;;;3.92;1.58;;;;;;;9.48;100.00;101289.25;4960113;28;20459;-77
2023/09/16 03:24:13;;;;;;;2.28;1.42;;;;;;;9.54;100.00;101299.38;4992993;28;20054;-78
2023/09/16 03:26:39;;;;;;;3.40;1.92;;;;;;;9.53;100.00;101302.22;4976183;28;20057;-77
2023/09/16 03:29:05;;;;;;;4.20;2.03;;;;;;;9.54;100.00;101309.28;4992826;28;20030;-78
2023/09/16 03:31:31;;;;;;;3.45;2.58;;;;;;;9.51;100.00;101314.97;4992755;28;20096;-77
2023/09/16 03:33:57;;;;;;;5.45;1.92;;;;;;;9.51;100.00;101314.97;4976452;28;20114;-77
2023/09/16 03:36:23;;;;;;;3.15;1.75;;;;;;;9.48;100.00;101313.44;4992440;28;20053;-77
2023/09/16 03:38:51;;;;;;;3.63;2.33;;;;;;;9.44;100.00;101310.19;4976619;28;20042;-78
2023/09/16 03:41:18;;;;;;;3.42;1.55;;;;;;;9.39;100.00;101311.66;4993658;28;20041;-78
2023/09/16 03:43:43;;;;;;;3.30;1.58;;;;;;;9.39;100.00;101317.03;4977183;28;20477;-77
2023/09/16 03:46:09;;;;;;;6.47;2.13;;;;;;;9.34;100.00;101313.97;4979769;28;20023;-77
2023/09/16 03:48:35;;;;;;;4.28;1.90;;;;;;;9.31;100.00;101312.44;4979873;28;20032;-77
2023/09/16 03:51:02;;;;;;;2.80;1.52;;;;;;;9.22;100.00;101311.50;4980043;28;20097;-77
2023/09/16 03:53:27;;;;;;;5.22;2.10;;;;;;;9.18;100.00;101315.50;4996243;28;20070;-77
2023/09/16 03:55:53;;;;;;;4.68;2.13;;;;;;;9.05;100.00;101307.00;4979812;28;20058;-78
2023/09/16 03:58:19;;;;;;;7.82;2.08;;;;;;;8.95;100.00;101308.91;4995520;28;20050;-77
2023/09/16 04:00:45;;;;;;;3.30;1.85;;;;;;;8.90;100.00;101311.19;4979549;28;20089;-77
2023/09/16 04:03:11;;;;;;;4.70;2.10;;;;;;;8.89;100.00;101312.19;4979807;28;20030;-77
2023/09/16 04:05:37;;;;;;;3.97;1.80;;;;;;;8.77;100.00;101301.66;4995370;28;20436;-77
2023/09/16 04:08:03;;;;;;;5.95;2.40;;;;;;;8.64;100.00;101313.75;4995460;28;20035;-77
2023/09/16 04:10:29;;;;;;;2.83;1.40;;;;;;;8.56;100.00;101309.97;4979620;28;20052;-77
2023/09/16 04:13:02;;;;;;;4.50;2.00;;;;;;;8.59;100.00;101308.81;4995856;28;20034;-77
2023/09/16 04:15:29;;;;;;;5.35;2.10;;;;;;;8.53;100.00;101312.94;5011846;28;20042;-77
2023/09/16 04:17:55;;;;;;;7.22;2.78;;;;;;;8.44;100.00;101304.94;4979225;28;20095;-77
2023/09/16 04:20:22;;;;;;;6.15;2.15;;;;;;;8.31;100.00;101306.13;4979474;28;20121;-77
2023/09/16 04:22:48;;;;;;;5.88;2.15;;;;;;;8.36;100.00;101300.28;5012023;28;20481;-77
2023/09/16 04:25:14;;;;;;;5.90;2.65;;;;;;;8.28;100.00;101301.06;4979289;28;20192;-77
2023/09/16 04:27:39;;;;;;;4.90;2.55;;;;;;;8.20;100.00;101297.41;4995213;28;20034;-77
2023/09/16 04:30:06;;;;;;;4.93;2.33;;;;;;;8.21;100.00;101299.97;4995187;28;20084;-76
2023/09/16 04:32:32;;;;;;;6.35;2.45;;;;;;;8.20;100.00;101302.78;4995205;28;20515;-78
2023/09/16 04:34:58;;;;;;;5.20;2.78;;;;;;;8.21;100.00;101301.78;4978904;28;20038;-77
2023/09/16 04:37:24;;;;;;;8.75;2.92;;;;;;;8.23;100.00;101308.69;4995054;28;20470;-77
2023/09/16 04:39:49;;;;;;;10.75;3.65;;;;;;;8.23;100.00;101311.38;4978978;28;20050;-77
2023/09/16 04:42:16;;;;;;;4.22;2.40;;;;;;;8.19;100.00;101312.66;4978661;28;20045;-77
2023/09/16 04:44:41;;;;;;;6.75;2.70;;;;;;;8.16;100.00;101307.59;4994975;28;20389;-76
2023/09/16 04:47:10;;;;;;;5.10;2.72;;;;;;;8.16;100.00;101299.56;4979020;28;20030;-77
2023/09/16 04:49:36;;;;;;;7.28;2.47;;;;;;;8.12;100.00;101304.38;4962674;28;20462;-77
2023/09/16 04:52:04;;;;;;;3.95;2.35;;;;;;;8.07;100.00;101303.09;4979039;28;20034;-77
2023/09/16 04:54:32;;;;;;;9.38;2.67;;;;;;;8.03;100.00;101302.56;4978921;28;20026;-77
2023/09/16 04:56:58;;;;;;;4.60;2.53;;;;;;;7.95;100.00;101298.91;4977805;28;20074;-77
2023/09/16 04:59:24;;;;;;;7.00;3.90;;;;;;;8.00;100.00;101285.94;5011272;28;20030;-77
2023/09/16 05:01:51;;;;;;;6.75;2.90;;;;;;;8.12;100.00;101295.47;4978671;28;20033;-77
2023/09/16 05:04:18;;;;;;;8.80;2.97;;;;;;;8.19;100.00;101287.69;4994745;28;20034;-77
2023/09/16 05:06:44;;;;;;;4.88;2.38;;;;;;;8.13;100.00;101289.97;4994601;28;20434;-77
2023/09/16 05:09:11;;;;;;;5.35;2.58;;;;;;;8.10;100.00;101294.78;4978543;28;20121;-77
2023/09/16 05:11:37;;;;;;;7.97;3.00;;;;;;;8.14;100.00;101291.66;4978532;28;20030;-77
2023/09/16 05:14:02;;;;;;;3.10;1.90;;;;;;;8.13;100.00;101302.53;4978558;28;20034;-77
2023/09/16 05:16:28;;;;;;;5.05;2.28;;;;;;;8.17;100.00;101295.03;4962187;28;20042;-77
2023/09/16 05:18:53;;;;;;;5.22;2.05;;;;;;;8.11;100.00;101294.63;4994314;28;20492;-77
2023/09/16 05:21:19;;;;;;;4.65;2.40;;;;;;;8.12;100.00;101292.78;4962181;28;20035;-77
2023/09/16 05:23:46;;;;;;;7.57;2.30;;;;;;;8.07;100.00;101295.06;5010412;28;20066;-78
2023/09/16 05:26:13;;;;;;;6.50;2.70;;;;;;;8.00;100.00;101292.13;4994286;28;20069;-77
2023/09/16 05:28:39;;;;;;;3.20;2.05;;;;;;;8.01;100.00;101304.53;4978007;28;20066;-77
2023/09/16 05:31:04;;;;;;;4.07;2.35;;;;;;;8.02;100.00;101314.25;4978199;28;20062;-77
2023/09/16 05:33:30;;;;;;;5.63;2.58;;;;;;;7.96;100.00;101317.50;4977762;28;20035;-77
2023/09/16 05:35:56;;;;;;;6.03;2.28;;;;;;;7.97;100.00;101302.31;4978185;28;20149;-78
2023/09/16 05:38:21;;;;;;;7.10;2.50;;;;;;;8.04;100.00;101304.22;4977999;28;20397;-77
2023/09/16 05:40:49;;;;;;;4.13;2.08;;;;;;;8.11;100.00;101301.81;4977993;28;20073;-78
2023/09/16 05:43:16;;;;;;;5.35;2.60;;;;;;;8.10;100.00;101301.00;4994010;28;20041;-79
2023/09/16 05:45:42;;;;;;;4.43;2.03;;;;;;;8.14;100.00;101309.56;4993423;28;20035;-77
2023/09/16 05:48:07;;;;;;;3.47;1.85;;;;;;;8.17;100.00;101301.22;4977779;28;20038;-77
2023/09/16 05:50:33;;;;;;;3.75;1.83;;;;;;;8.23;100.00;101307.81;4977597;28;20034;-76
2023/09/16 05:52:59;;;;;;;3.35;1.65;;;;;;;8.15;100.00;101306.75;4977874;28;20034;-77
2023/09/16 05:55:27;;;;;;;4.07;2.10;;;;;;;8.12;100.00;101312.41;4977419;28;20088;-77
2023/09/16 05:57:53;;;;;;;4.85;2.92;;;;;;;8.11;100.00;101316.06;4993222;28;20026;-78
2023/09/16 06:00:18;;;;;;;4.35;1.83;;;;;;;8.17;100.00;101311.09;4977627;28;20034;-76
2023/09/16 06:02:44;;;;;;;5.18;2.20;;;;;;;8.19;100.00;101301.94;4977158;28;20038;-77
2023/09/16 06:05:13;;;;;;;4.30;1.85;;;;;;;8.22;100.00;101312.34;4977287;28;20040;-77
2023/09/16 06:07:42;;;;;;;3.58;1.90;;;;;;;8.23;100.00;101319.41;4977288;28;20073;-77
2023/09/16 06:10:08;;;;;;;8.38;2.45;;;;;;;8.24;100.00;101317.56;4993394;28;20595;-77
2023/09/16 06:12:34;;;;;;;5.00;2.17;;;;;;;8.27;100.00;101318.13;4993432;28;20026;-76
2023/09/16 06:14:59;;;;;;;2.22;1.50;;;;;;;8.26;100.00;101318.28;4993236;28;20069;-77
2023/09/16 06:17:25;;;;;;;6.22;2.58;;;;;;;8.28;100.00;101325.19;4961136;28;20061;-77
2023/09/16 06:19:56;;;;;;;5.13;2.17;;;;;;;8.32;100.00;101323.88;4977289;28;20129;-77
2023/09/16 06:22:23;;;;;;;4.05;1.83;;;;;;;8.36;100.00;101327.09;4993591;28;20069;-77
2023/09/16 06:24:50;;;;;;;5.82;2.13;;;;;;;8.36;100.00;101330.66;4993134;28;20385;-77
2023/09/16 06:27:16;;;;;;;4.88;2.10;;;;;;;8.43;100.00;101330.91;4992651;28;20134;-77
2023/09/16 06:29:43;;;;;;;3.55;1.83;;;;;;;8.43;100.00;101336.28;4976795;28;20495;-77
2023/09/16 06:32:10;;;;;;;4.40;2.05;;;;;;;8.45;100.00;101338.81;4992985;28;20034;-78
2023/09/16 06:34:36;;;;;;;3.17;1.90;;;;;;;8.44;100.00;101343.34;4977056;28;20033;-77
2023/09/16 06:37:05;;;;;;;4.68;2.08;;;;;;;8.34;100.00;101340.66;5008830;28;20034;-77
2023/09/16 06:39:32;;;;;;;3.33;1.90;;;;;;;8.23;100.00;101346.19;4992821;28;20061;-77
2023/09/16 06:41:57;;;;;;;3.88;1.35;;;;;;;8.25;100.00;101340.69;5009030;28;20588;-77
2023/09/16 06:44:23;;;;;;;3.55;1.70;;;;;;;8.23;100.00;101351.56;4960003;28;20042;-77
2023/09/16 06:46:49;;;;;;;5.65;2.20;;;;;;;8.24;100.00;101358.59;4992735;28;20107;-77
2023/09/16 06:49:17;;;;;;;4.13;1.90;;;;;;;8.30;100.00;101351.81;4976469;28;20440;-77
2023/09/16 06:51:43;;;;;;;4.00;1.48;;;;;;;8.28;100.00;101353.78;4976768;28;20038;-77
2023/09/16 06:54:09;;;;;;;4.68;2.10;;;;;;;8.34;100.00;101356.72;4976580;28;20076;-77
2023/09/16 06:56:34;;;;;;;2.10;0.90;;;;;;;8.48;100.00;101351.91;4992545;28;20034;-77
2023/09/16 06:59:01;;;;;;;3.60;1.95;;;;;;;8.58;100.00;101355.41;4976853;28;20528;-76
2023/09/16 07:01:27;;;;;;;5.18;2.08;;;;;;;8.70;100.00;101362.25;4979249;28;20030;-78
2023/09/16 07:03:54;;;;;;;3.22;1.80;;;;;;;8.91;100.00;101359.31;4963643;28;20393;-76
2023/09/16 07:06:19;;;;;;;2.15;1.55;;;;;;;9.08;100.00;101352.31;4992552;28;20026;-76
2023/09/16 07:08:48;;;;;;;4.28;1.90;;;;;;;9.27;100.00;101355.84;4976216;28;20045;-78
2023/09/16 07:11:15;;;;;;;2.90;1.40;;;;;;;9.39;100.00;101359.97;4976035;28;20038;-78
2023/09/16 07:13:40;;;;;;;4.10;2.05;;;;;;;9.49;100.00;101360.75;4976203;28;20385;-78
2023/09/16 07:16:06;;;;;;;3.42;1.60;;;;;;;9.52;100.00;101363.09;4976550;28;20185;-77
2023/09/16 07:18:35;;;;;;;4.00;1.45;;;;;;;9.57;100.00;101355.44;4976366;28;20096;-78
2023/09/16 07:21:00;;;;;;;3.40;1.58;;;;;;;9.64;100.00;101353.81;5012373;28;20034;-77
2023/09/16 07:23:26;;;;;;;2.35;1.55;;;;;;;9.68;100.00;101355.22;4980328;28;20465;-76
2023/09/16 07:25:58;;;;;;;3.10;1.50;;;;;;;9.75;100.00;101358.09;4979818;28;20120;-76
2023/09/16 07:28:25;;;;;;;3.87;1.80;;;;;;;9.79;100.00;101346.06;4996165;28;20213;-76
2023/09/16 07:30:51;;;;;;;3.45;1.40;;;;;;;9.94;100.00;101350.88;4996076;28;20264;-77
2023/09/16 07:33:17;;;;;;;4.15;1.30;;;;;;;10.03;100.00;101348.09;4979085;28;20172;-77
2023/09/16 07:35:43;;;;;;;5.38;1.85;;;;;;;10.12;100.00;101355.19;4995621;28;20459;-78
2023/09/16 07:38:11;;;;;;;3.90;1.65;;;;;;;10.31;100.00;101356.84;4996027;28;20046;-77
2023/09/16 07:40:38;;;;;;;2.85;1.40;;;;;;;10.46;100.00;101357.09;4979108;28;20065;-78
2023/09/16 07:43:08;;;;;;;2.92;1.50;;;;;;;10.77;100.00;101361.94;4979876;28;20109;-77
2023/09/16 07:45:34;;;;;;;2.17;1.20;;;;;;;10.79;100.00;101366.13;4995738;28;20112;-77
2023/09/16 07:48:00;;;;;;;3.53;1.50;;;;;;;10.81;100.00;101363.28;4979844;28;20062;-78
2023/09/16 07:50:26;;;;;;;1.88;1.40;;;;;;;10.86;100.00;101370.88;4996208;28;20106;-78
2023/09/16 07:52:52;;;;;;;3.78;1.52;;;;;;;10.90;100.00;101362.34;4980069;28;20030;-77
2023/09/16 07:55:17;;;;;;;2.67;1.40;;;;;;;10.99;100.00;101368.56;4979967;28;20042;-77
2023/09/16 07:57:43;;;;;;;2.17;1.40;;;;;;;11.03;100.00;101372.59;4979926;28;20042;-78
2023/09/16 08:00:09;;;;;;;2.05;1.30;;;;;;;11.17;100.00;101363.06;4995653;28;20049;-78
2023/09/16 08:02:35;;;;;;;2.67;1.63;;;;;;;11.41;100.00;101370.34;4979684;28;20381;-78
2023/09/16 08:05:00;;;;;;;1.35;1.13;;;;;;;12.02;100.00;101365.50;4995593;28;20495;-78
2023/09/16 08:07:26;;;;;;;2.83;1.23;;;;;;;12.98;100.00;101361.81;4978842;28;20042;-78
2023/09/16 08:09:52;;;;;;;2.45;1.08;;;;;;;13.61;100.00;101368.84;4979228;28;20370;-79
2023/09/16 08:12:19;;;;;;;1.73;1.23;;;;;;;14.60;100.00;101365.22;4978732;28;20100;-78
2023/09/16 08:15:02;;;;;;;2.58;1.20;;;;;;;15.84;100.00;101363.28;5010778;28;20081;-78
2023/09/16 08:17:29;;;;;;;3.60;1.45;;;;;;;16.50;100.00;101365.63;4978774;28;20034;-76
2023/09/16 08:19:54;;;;;;;2.75;1.17;;;;;;;16.84;100.00;101363.94;4994770;28;20069;-77
2023/09/16 08:22:20;;;;;;;1.73;1.50;;;;;;;17.11;100.00;101370.31;4979551;28;20030;-77
2023/09/16 08:24:46;;;;;;;2.75;1.30;;;;;;;17.14;100.00;101368.00;4995453;28;20145;-78
2023/09/16 08:27:12;;;;;;;2.33;1.40;;;;;;;17.22;100.00;101372.41;4979010;28;20113;-77
2023/09/16 08:29:38;;;;;;;1.13;0.95;;;;;;;17.26;100.00;101368.28;4978734;28;20068;-78
2023/09/16 08:32:03;;;;;;;4.35;1.33;;;;;;;17.04;100.00;101359.44;4976199;28;20040;-79
2023/09/16 08:34:29;;;;;;;1.88;1.60;;;;;;;16.87;100.00;101356.22;4994317;28;20034;-76
2023/09/16 08:36:54;;;;;;;1.90;1.40;;;;;;;17.24;100.00;101364.91;4978924;28;20040;-77
2023/09/16 08:39:20;;;;;;;2.17;1.20;;;;;;;17.25;100.00;101360.31;4978115;28;20034;-77
2023/09/16 08:42:11;;;;;;;1.83;1.30;;;;;;;17.53;100.00;101361.00;4979264;28;20034;-77
2023/09/16 08:44:41;;;;;;;2.58;1.92;;;;;;;17.85;100.00;101366.69;4978979;28;20549;-77
2023/09/16 08:47:10;;;;;;;2.90;1.20;;;;;;;17.86;100.00;101364.81;4978771;28;20041;-77
2023/09/16 08:49:40;;;;;;;2.13;1.20;;;;;;;17.99;100.00;101364.81;4994714;28;20492;-77
2023/09/16 08:52:10;;;;;;;2.75;1.27;;;;;;;18.15;95.96;101361.69;5010850;28;20041;-78
2023/09/16 08:54:36;;;;;;;2.33;1.42;;;;;;;18.48;97.26;101355.31;5011276;28;20062;-77
2023/09/16 08:57:02;;;;;;;2.13;1.55;;;;;;;18.42;83.14;101354.28;4979017;28;20045;-77
2023/09/16 08:59:29;;;;;;;2.40;1.40;;;;;;;18.21;79.49;101360.00;4995148;28;20042;-78
2023/09/16 09:01:54;;;;;;;1.60;1.20;;;;;;;18.35;82.28;101355.34;4978826;28;20026;-78
2023/09/16 09:04:20;;;;;;;2.58;1.27;;;;;;;18.15;76.47;101366.25;5011321;28;20026;-79
2023/09/16 09:06:49;;;;;;;2.28;1.20;;;;;;;17.97;74.38;101369.66;4978850;28;20045;-78
2023/09/16 09:09:15;;;;;;;1.85;1.30;;;;;;;18.20;80.10;101390.97;4978615;28;20046;-77
2023/09/16 09:11:40;;;;;;;2.00;1.35;;;;;;;18.24;80.87;101384.88;5010717;28;20436;-78
2023/09/16 09:14:10;;;;;;;3.67;1.67;;;;;;;18.35;81.03;101366.25;4994721;28;20034;-77
2023/09/16 09:16:38;;;;;;;1.40;1.13;;;;;;;18.70;81.07;101383.09;5010267;28;20392;-78
2023/09/16 09:19:04;;;;;;;2.08;1.30;;;;;;;18.89;76.94;101389.56;4978381;28;20041;-78
2023/09/16 09:21:31;;;;;;;1.40;1.02;;;;;;;18.62;75.91;101378.72;4978461;28;20073;-78
2023/09/16 09:23:58;;;;;;;2.22;1.30;;;;;;;18.88;79.62;101382.47;4994157;28;20061;-78
2023/09/16 09:26:24;;;;;;;2.00;1.27;;;;;;;18.92;74.38;101386.44;4994356;28;20027;-78
2023/09/16 09:28:49;;;;;;;2.28;1.42;;;;;;;18.87;68.65;101392.53;4994408;28;20038;-78
2023/09/16 09:31:15;;;;;;;2.00;1.33;;;;;;;18.72;73.26;101382.91;4994330;28;20040;-78
2023/09/16 09:33:41;;;;;;;2.00;1.35;;;;;;;18.89;73.23;101378.66;4994193;28;20041;-78
2023/09/16 09:36:12;;;;;;;1.75;1.40;;;;;;;18.47;67.54;101383.63;4977730;28;20037;-78
2023/09/16 09:38:39;;;;;;;1.55;1.15;;;;;;;18.68;74.13;101386.06;4992490;28;20081;-79
2023/09/16 09:41:05;;;;;;;2.17;1.50;;;;;;;18.72;69.44;101382.91;5008446;28;20045;-79
2023/09/16 09:43:30;;;;;;;3.05;1.30;;;;;;;18.70;71.39;101385.84;4993914;28;20470;-78
2023/09/16 09:45:57;;;;;;;2.05;1.08;;;;;;;18.62;64.82;101378.72;4993914;28;20039;-78
2023/09/16 09:48:22;;;;;;;3.35;1.35;;;;;;;17.91;65.74;101386.78;4993957;28;20034;-78
2023/09/16 09:50:49;;;;;;;3.03;1.23;;;;;;;18.18;72.11;101391.19;4977797;28;20084;-78
2023/09/16 09:53:15;;;;;;;2.63;1.30;;;;;;;18.79;72.45;101394.66;4993774;28;20049;-78
2023/09/16 09:55:40;;;;;;;3.20;1.30;;;;;;;19.08;68.54;101393.28;4977315;28;20042;-78
2023/09/16 09:58:06;;;;;;;2.25;1.02;;;;;;;19.02;67.08;101405.03;4993736;28;20030;-78
2023/09/16 10:00:31;;;;;;;1.67;1.15;;;;;;;18.35;65.94;101407.09;4993479;28;20061;-78
2023/09/16 10:03:00;;;;;;;2.40;1.10;;;;;;;18.46;65.87;101396.38;4977826;28;20042;-78
2023/09/16 10:05:26;;;;;;;2.88;1.23;;;;;;;18.77;67.04;101399.47;4993419;28;20065;-78
2023/09/16 10:07:53;;;;;;;2.08;1.27;;;;;;;18.35;69.94;101398.91;4995003;28;20094;-78
2023/09/16 10:10:22;;;;;;;1.85;1.30;;;;;;;17.63;74.64;101403.28;4985464;28;20073;-78
2023/09/16 10:12:49;;;;;;;2.08;0.98;;;;;;;17.26;75.61;101400.06;4978556;28;20062;-78
2023/09/16 10:15:15;;;;;;;2.60;1.30;;;;;;;16.66;73.24;101411.44;4977267;28;20034;-78
2023/09/16 10:17:41;;;;;;;3.00;1.20;;;;;;;16.83;74.10;101408.41;4993536;28;20045;-78
2023/09/16 10:20:10;;;;;;;1.92;1.02;;;;;;;17.53;70.07;101412.66;5009637;28;20069;-78
2023/09/16 10:22:40;;;;;;;1.95;1.20;;;;;;;17.04;70.95;101388.44;5008923;28;20057;-78
2023/09/16 10:25:06;;;;;;;2.30;1.10;;;;;;;16.17;75.16;101408.84;4993616;28;20038;-79
2023/09/16 10:27:37;;;;;;;2.90;1.23;;;;;;;15.51;80.61;101395.47;4992785;28;20033;-78
2023/09/16 10:30:04;;;;;;;2.70;1.15;;;;;;;15.60;82.44;101400.56;4993272;28;20061;-78
2023/09/16 10:32:30;;;;;;;1.98;1.15;;;;;;;17.12;77.30;101397.28;5009200;28;20066;-78
2023/09/16 10:34:59;;;;;;;2.60;1.10;;;;;;;17.97;68.90;101389.53;4976938;28;20034;-78
2023/09/16 10:37:25;;;;;;;1.73;1.30;;;;;;;18.09;68.32;101389.72;4993190;28;20506;-79
2023/09/16 10:39:52;;;;;;;1.98;1.30;;;;;;;18.13;66.95;101382.81;4993034;28;20026;-78
2023/09/16 10:42:19;;;;;;;1.75;1.23;;;;;;;18.05;66.28;101361.25;4977046;28;20035;-78
2023/09/16 10:44:46;;;;;;;1.83;1.35;;;;;;;17.91;64.62;101381.34;5008955;28;20062;-78
2023/09/16 10:47:14;;;;;;;1.13;0.90;;;;;;;18.02;65.63;101370.69;4992911;28;20484;-78
2023/09/16 10:49:39;;;;;;;1.63;1.25;;;;;;;18.28;63.49;101354.53;4976966;28;20054;-78
2023/09/16 10:52:09;;;;;;;2.78;1.45;;;;;;;17.57;65.56;101348.66;4976983;28;20125;-78
2023/09/16 10:54:43;;;;;;;1.60;1.10;;;;;;;17.77;64.94;101361.44;4992410;28;20101;-78
2023/09/16 10:57:18;;;;;;;1.98;1.17;;;;;;;17.44;66.86;101348.66;4993043;28;20026;-78
2023/09/16 10:59:45;;;;;;;2.30;1.30;;;;;;;17.62;66.27;101344.47;4993050;28;20042;-78
2023/09/16 11:02:32;;;;;;;1.30;1.10;;;;;;;18.11;64.87;101337.81;4976861;28;20068;-78
2023/09/16 11:04:58;;;;;;;2.28;1.20;;;;;;;18.45;62.72;101340.25;4976783;28;20092;-78
2023/09/16 11:07:23;;;;;;;2.38;1.20;;;;;;;18.24;61.72;101330.44;4992534;28;20042;-78
2023/09/16 11:09:51;;;;;;;1.50;1.10;;;;;;;18.44;61.54;101332.28;4992552;28;20133;-78
2023/09/16 11:12:18;;;;;;;1.52;1.10;;;;;;;18.32;61.74;101329.38;4992800;28;20085;-78
2023/09/16 11:14:44;;;;;;;1.60;1.25;;;;;;;18.25;61.49;101317.66;4992822;28;20486;-78
2023/09/16 11:17:12;;;;;;;1.92;1.15;;;;;;;18.34;61.55;101315.56;4992432;28;20038;-78
2023/09/16 11:19:37;;;;;;;2.53;1.38;;;;;;;18.12;60.89;101304.09;5008867;28;20030;-78
2023/09/16 11:22:03;;;;;;;2.08;1.13;;;;;;;18.14;61.32;101313.72;5008658;28;20038;-78